createdAt,value
2019-03-05T00:00:40.207Z,1.82
2019-03-05T00:01:22.588Z,2.45
2019-03-05T00:02:00.513Z,2.35
2019-03-05T00:02:38.196Z,2.08
2019-03-05T00:03:15.982Z,2.25
2019-03-05T00:03:53.989Z,1.87
2019-03-05T00:04:31.733Z,2.42
2019-03-05T00:05:10.859Z,2.55
2019-03-05T00:05:49.293Z,2.22
2019-03-05T00:06:27.150Z,2.33
2019-03-05T00:07:03.983Z,2.52
2019-03-05T00:07:41.813Z,2.37
2019-03-05T00:08:19.869Z,2.50
2019-03-05T00:08:57.979Z,2.60
2019-03-05T00:09:35.881Z,2.10
2019-03-05T00:10:14.291Z,2.60
2019-03-05T00:10:52.037Z,2.12
2019-03-05T00:11:30.045Z,2.20
2019-03-05T00:12:07.810Z,2.20
2019-03-05T00:12:45.831Z,1.80
2019-03-05T00:13:23.907Z,2.40
2019-03-05T00:14:01.362Z,2.10
2019-03-05T00:14:39.073Z,2.58
2019-03-05T00:15:18.593Z,2.50
2019-03-05T00:15:56.292Z,2.98
2019-03-05T00:16:34.158Z,2.52
2019-03-05T00:17:11.749Z,2.40
2019-03-05T00:17:49.306Z,2.45
2019-03-05T00:18:27.315Z,2.27
2019-03-05T00:19:05.287Z,2.55
2019-03-05T00:19:42.765Z,1.90
2019-03-05T00:20:20.688Z,1.65
2019-03-05T00:20:58.507Z,2.35
2019-03-05T00:21:36.202Z,2.22
2019-03-05T00:22:13.740Z,2.30
2019-03-05T00:22:51.615Z,1.80
2019-03-05T00:23:49.199Z,1.95
2019-03-05T00:25:13.735Z,2.27
2019-03-05T00:25:51.931Z,2.10
2019-03-05T00:26:38.418Z,2.45
2019-03-05T00:27:15.909Z,2.45
2019-03-05T00:28:11.749Z,2.60
2019-03-05T00:29:15.400Z,2.35
2019-03-05T00:30:14.811Z,1.95
2019-03-05T00:31:01.910Z,2.30
2019-03-05T00:31:39.946Z,2.17
2019-03-05T00:32:23.621Z,1.98
2019-03-05T00:33:05.715Z,2.00
2019-03-05T00:34:15.043Z,2.47
2019-03-05T00:35:31.743Z,2.55
2019-03-05T00:36:19.438Z,2.15
2019-03-05T00:37:20.389Z,2.72
2019-03-05T00:38:22.467Z,2.05
2019-03-05T00:39:25.595Z,2.30
2019-03-05T00:40:32.432Z,1.90
2019-03-05T00:41:47.386Z,2.10
2019-03-05T00:42:58.712Z,2.02
2019-03-05T00:43:48.985Z,2.25
2019-03-05T00:44:51.044Z,2.62
2019-03-05T00:45:56.215Z,2.15
2019-03-05T00:46:57.711Z,2.30
2019-03-05T00:48:03.337Z,1.60
2019-03-05T00:49:23.430Z,2.37
2019-03-05T00:50:22.821Z,2.20
2019-03-05T00:51:40.354Z,1.95
2019-03-05T00:52:47.619Z,1.82
2019-03-05T00:53:55.148Z,2.10
2019-03-05T00:54:43.635Z,1.92
2019-03-05T00:55:57.109Z,2.02
2019-03-05T00:56:51.654Z,2.40
2019-03-05T00:57:50.464Z,1.95
2019-03-05T00:58:38.541Z,2.58
2019-03-05T00:59:55.799Z,2.20
2019-03-05T01:01:14.700Z,1.90
2019-03-05T01:02:10.190Z,2.05
2019-03-05T01:03:10.418Z,1.90
2019-03-05T01:04:14.633Z,2.00
2019-03-05T01:05:26.611Z,2.02
2019-03-05T01:06:17.909Z,3.25
2019-03-05T01:06:55.927Z,2.35
2019-03-05T01:07:33.483Z,3.25
2019-03-05T01:08:15.661Z,2.45
2019-03-05T01:08:59.500Z,2.75
2019-03-05T01:09:37.187Z,2.80
2019-03-05T01:10:15.997Z,2.60
2019-03-05T01:10:54.401Z,2.10
2019-03-05T01:11:32.413Z,2.30
2019-03-05T01:12:11.970Z,2.83
2019-03-05T01:12:49.543Z,2.35
2019-03-05T01:13:27.521Z,2.55
2019-03-05T01:14:05.459Z,1.98
2019-03-05T01:14:44.239Z,2.17
2019-03-05T01:15:22.309Z,2.50
2019-03-05T01:15:59.686Z,2.12
2019-03-05T01:16:37.418Z,2.40
2019-03-05T01:17:15.584Z,2.40
2019-03-05T01:17:53.044Z,2.33
2019-03-05T01:18:30.487Z,2.12
2019-03-05T01:19:07.927Z,2.47
2019-03-05T01:19:45.002Z,2.33
2019-03-05T01:20:23.052Z,2.25
2019-03-05T01:21:00.815Z,2.92
2019-03-05T01:21:38.887Z,2.62
2019-03-05T01:22:16.317Z,1.92
2019-03-05T01:22:53.440Z,2.87
2019-03-05T01:23:31.041Z,2.50
2019-03-05T01:24:09.159Z,2.20
2019-03-05T01:24:47.451Z,2.25
2019-03-05T01:25:28.642Z,2.25
2019-03-05T01:26:06.405Z,2.33
2019-03-05T01:26:44.259Z,2.95
2019-03-05T01:27:21.971Z,2.40
2019-03-05T01:27:59.835Z,2.65
2019-03-05T01:28:38.260Z,2.77
2019-03-05T01:29:16.229Z,1.87
2019-03-05T01:29:53.291Z,2.15
2019-03-05T01:30:53.303Z,2.92
2019-03-05T01:31:37.649Z,2.02
2019-03-05T01:32:34.679Z,2.70
2019-03-05T01:33:14.111Z,3.05
2019-03-05T01:33:59.631Z,2.35
2019-03-05T01:35:02.135Z,2.92
2019-03-05T01:35:44.528Z,2.60
2019-03-05T01:36:24.432Z,2.37
2019-03-05T01:37:02.859Z,2.85
2019-03-05T01:37:40.777Z,2.75
2019-03-05T01:38:18.563Z,2.67
2019-03-05T01:39:05.640Z,2.55
2019-03-05T01:40:04.935Z,2.30
2019-03-05T01:40:48.756Z,1.90
2019-03-05T01:41:26.140Z,2.42
2019-03-05T01:42:04.434Z,2.70
2019-03-05T01:42:42.323Z,2.50
2019-03-05T01:43:19.897Z,2.35
2019-03-05T01:43:57.795Z,2.75
2019-03-05T01:44:35.784Z,2.60
2019-03-05T01:45:15.101Z,2.85
2019-03-05T01:45:52.903Z,2.70
2019-03-05T01:46:30.576Z,3.30
2019-03-05T01:47:08.693Z,2.92
2019-03-05T01:47:46.069Z,2.67
2019-03-05T01:48:23.783Z,2.77
2019-03-05T01:49:00.793Z,2.92
2019-03-05T01:49:37.889Z,2.37
2019-03-05T01:50:15.041Z,2.33
2019-03-05T01:50:52.619Z,3.25
2019-03-05T01:51:30.195Z,3.10
2019-03-05T01:52:08.599Z,2.75
2019-03-05T01:52:46.370Z,3.52
2019-03-05T01:53:24.431Z,3.75
2019-03-05T01:54:02.083Z,3.80
2019-03-05T01:54:39.365Z,3.55
2019-03-05T01:55:17.318Z,3.08
2019-03-05T01:55:54.288Z,3.30
2019-03-05T01:56:31.703Z,3.10
2019-03-05T01:57:09.454Z,3.40
2019-03-05T01:57:46.925Z,3.22
2019-03-05T01:58:24.538Z,2.80
2019-03-05T01:59:01.595Z,3.55
2019-03-05T01:59:39.563Z,2.80
2019-03-05T02:00:17.314Z,3.58
2019-03-05T02:00:55.200Z,3.42
2019-03-05T02:01:32.955Z,3.47
2019-03-05T02:02:10.819Z,3.10
2019-03-05T02:02:48.631Z,3.47
2019-03-05T02:03:26.783Z,4.70
2019-03-05T02:04:04.583Z,3.60
2019-03-05T02:04:42.243Z,4.08
2019-03-05T02:05:21.169Z,3.75
2019-03-05T02:05:58.765Z,4.40
2019-03-05T02:06:36.172Z,4.20
2019-03-05T02:07:14.031Z,3.55
2019-03-05T02:07:52.223Z,4.40
2019-03-05T02:08:29.931Z,3.90
2019-03-05T02:09:09.179Z,3.90
2019-03-05T02:09:47.148Z,4.65
2019-03-05T02:10:27.386Z,4.12
2019-03-05T02:11:05.838Z,3.80
2019-03-05T02:11:44.083Z,4.17
2019-03-05T02:12:22.178Z,3.95
2019-03-05T02:12:59.554Z,4.40
2019-03-05T02:13:36.855Z,4.30
2019-03-05T02:14:14.794Z,5.00
2019-03-05T02:14:52.573Z,4.30
2019-03-05T02:15:30.574Z,4.22
2019-03-05T02:16:08.409Z,4.25
2019-03-05T02:16:46.371Z,4.20
2019-03-05T02:17:24.048Z,3.90
2019-03-05T02:18:01.628Z,4.50
2019-03-05T02:18:39.859Z,4.28
2019-03-05T02:19:45.343Z,3.95
2019-03-05T02:20:24.692Z,4.40
2019-03-05T02:21:02.619Z,4.10
2019-03-05T02:21:40.236Z,4.83
2019-03-05T02:22:41.164Z,4.85
2019-03-05T02:23:38.511Z,4.67
2019-03-05T02:24:49.528Z,4.67
2019-03-05T02:26:17.230Z,4.60
2019-03-05T02:27:19.527Z,4.15
2019-03-05T02:28:14.186Z,4.60
2019-03-05T02:29:30.192Z,4.70
2019-03-05T02:30:34.370Z,3.77
2019-03-05T02:31:42.445Z,4.42
2019-03-05T02:33:19.485Z,4.20
2019-03-05T02:34:42.517Z,4.70
2019-03-05T02:35:51.292Z,5.25
2019-03-05T02:37:02.925Z,4.35
2019-03-05T02:38:17.624Z,4.47
2019-03-05T02:39:56.750Z,4.60
2019-03-05T02:40:40.779Z,4.90
2019-03-05T02:41:42.171Z,4.33
2019-03-05T02:42:44.553Z,3.90
2019-03-05T02:44:06.493Z,4.17
2019-03-05T02:45:31.741Z,5.03
2019-03-05T02:46:22.537Z,4.60
2019-03-05T02:47:16.151Z,5.22
2019-03-05T02:48:10.622Z,4.30
2019-03-05T02:49:13.518Z,5.92
2019-03-05T02:50:44.636Z,4.35
2019-03-05T02:51:44.064Z,5.72
2019-03-05T02:52:53.059Z,4.42
2019-03-05T02:54:02.071Z,4.78
2019-03-05T02:55:03.737Z,5.15
2019-03-05T02:55:55.996Z,4.62
2019-03-05T02:57:07.926Z,4.80
2019-03-05T02:57:44.183Z,5.97
2019-03-05T02:58:20.327Z,5.40
2019-03-05T02:58:56.003Z,4.95
2019-03-05T02:59:33.691Z,4.70
2019-03-05T03:00:13.505Z,5.35
2019-03-05T03:01:07.945Z,4.80
2019-03-05T03:02:09.884Z,4.80
2019-03-05T03:03:00.012Z,5.53
2019-03-05T03:03:43.604Z,5.12
2019-03-05T03:04:22.053Z,5.30
2019-03-05T03:05:07.509Z,5.47
2019-03-05T03:05:54.051Z,5.47
2019-03-05T03:06:34.008Z,5.30
2019-03-05T03:07:11.868Z,5.75
2019-03-05T03:07:49.397Z,5.92
2019-03-05T03:08:33.012Z,6.05
2019-03-05T03:09:43.752Z,5.90
2019-03-05T03:10:23.339Z,6.40
2019-03-05T03:11:00.743Z,5.95
2019-03-05T03:11:38.759Z,5.67
2019-03-05T03:12:16.573Z,6.78
2019-03-05T03:12:54.637Z,5.80
2019-03-05T03:13:34.675Z,5.90
2019-03-05T03:14:12.097Z,5.80
2019-03-05T03:14:49.798Z,6.67
2019-03-05T03:15:27.620Z,6.50
2019-03-05T03:16:05.458Z,5.78
2019-03-05T03:16:43.303Z,5.50
2019-03-05T03:17:20.946Z,5.33
2019-03-05T03:17:58.062Z,5.97
2019-03-05T03:18:36.053Z,6.83
2019-03-05T03:19:13.756Z,6.05
2019-03-05T03:19:51.829Z,5.72
2019-03-05T03:20:29.891Z,6.28
2019-03-05T03:21:07.478Z,6.53
2019-03-05T03:21:45.572Z,5.70
2019-03-05T03:22:22.325Z,5.75
2019-03-05T03:22:59.805Z,5.75
2019-03-05T03:23:37.845Z,5.50
2019-03-05T03:24:15.723Z,6.00
2019-03-05T03:24:53.385Z,6.05
2019-03-05T03:25:31.156Z,6.70
2019-03-05T03:26:08.852Z,6.00
2019-03-05T03:26:46.881Z,5.22
2019-03-05T03:27:24.709Z,6.12
2019-03-05T03:28:02.089Z,6.03
2019-03-05T03:28:39.789Z,6.12
2019-03-05T03:29:16.778Z,5.92
2019-03-05T03:29:54.496Z,6.75
2019-03-05T03:30:32.143Z,6.80
2019-03-05T03:31:10.049Z,5.85
2019-03-05T03:31:47.666Z,6.33
2019-03-05T03:32:25.465Z,6.72
2019-03-05T03:33:03.189Z,6.50
2019-03-05T03:33:40.526Z,6.03
2019-03-05T03:34:18.561Z,6.80
2019-03-05T03:34:55.593Z,6.40
2019-03-05T03:35:33.493Z,7.25
2019-03-05T03:36:10.956Z,6.28
2019-03-05T03:36:47.928Z,6.60
2019-03-05T03:37:25.395Z,6.70
2019-03-05T03:38:03.347Z,7.15
2019-03-05T03:38:41.011Z,7.30
2019-03-05T03:39:18.393Z,6.17
2019-03-05T03:39:56.020Z,7.00
2019-03-05T03:40:33.731Z,7.30
2019-03-05T03:41:11.744Z,7.00
2019-03-05T03:41:49.178Z,8.25
2019-03-05T03:42:26.768Z,7.60
2019-03-05T03:43:04.378Z,7.33
2019-03-05T03:43:41.810Z,8.90
2019-03-05T03:44:19.305Z,7.20
2019-03-05T03:44:57.001Z,6.75
2019-03-05T03:45:34.394Z,7.20
2019-03-05T03:46:12.077Z,6.80
2019-03-05T03:46:50.074Z,6.90
2019-03-05T03:47:27.510Z,7.90
2019-03-05T03:48:05.152Z,7.35
2019-03-05T03:48:42.826Z,7.20
2019-03-05T03:49:20.265Z,7.25
2019-03-05T03:49:58.088Z,7.30
2019-03-05T03:50:35.473Z,7.42
2019-03-05T03:51:13.374Z,7.15
2019-03-05T03:51:51.542Z,7.65
2019-03-05T03:52:29.325Z,7.80
2019-03-05T03:53:07.087Z,8.08
2019-03-05T03:53:44.593Z,8.30
2019-03-05T03:54:41.086Z,6.92
2019-03-05T03:55:19.494Z,7.47
2019-03-05T03:55:56.970Z,7.85
2019-03-05T03:56:34.444Z,7.37
2019-03-05T03:57:12.491Z,7.67
2019-03-05T03:57:50.321Z,7.67
2019-03-05T03:58:27.744Z,7.85
2019-03-05T03:59:06.005Z,7.75
2019-03-05T03:59:43.840Z,7.50
2019-03-05T04:00:22.860Z,7.55
2019-03-05T04:01:00.300Z,7.87
2019-03-05T04:01:38.369Z,7.53
2019-03-05T04:02:16.315Z,7.35
2019-03-05T04:02:55.030Z,6.87
2019-03-05T04:03:32.887Z,7.25
2019-03-05T04:04:10.637Z,7.12
2019-03-05T04:04:48.125Z,7.53
2019-03-05T04:05:26.424Z,7.50
2019-03-05T04:06:04.652Z,7.33
2019-03-05T04:06:42.826Z,7.55
2019-03-05T04:07:20.468Z,7.53
2019-03-05T04:07:58.251Z,7.50
2019-03-05T04:08:36.272Z,7.30
2019-03-05T04:09:13.734Z,7.17
2019-03-05T04:09:51.226Z,8.55
2019-03-05T04:10:29.017Z,7.55
2019-03-05T04:11:06.512Z,7.45
2019-03-05T04:11:44.505Z,7.65
2019-03-05T04:12:22.265Z,7.50
2019-03-05T04:12:59.985Z,7.35
2019-03-05T04:13:37.603Z,7.00
2019-03-05T04:14:15.546Z,7.03
2019-03-05T04:14:53.584Z,7.62
2019-03-05T04:15:31.643Z,8.00
2019-03-05T04:16:09.093Z,7.53
2019-03-05T04:16:46.789Z,7.78
2019-03-05T04:17:24.144Z,7.90
2019-03-05T04:18:02.015Z,7.90
2019-03-05T04:18:39.445Z,8.18
2019-03-05T04:19:20.369Z,7.35
2019-03-05T04:19:58.306Z,8.08
2019-03-05T04:20:40.038Z,7.97
2019-03-05T04:21:19.876Z,7.80
2019-03-05T04:21:56.628Z,7.75
2019-03-05T04:22:34.516Z,7.15
2019-03-05T04:23:12.466Z,7.65
2019-03-05T04:23:50.168Z,7.45
2019-03-05T04:24:28.216Z,8.60
2019-03-05T04:25:06.128Z,7.75
2019-03-05T04:25:43.761Z,6.92
2019-03-05T04:26:20.650Z,7.83
2019-03-05T04:26:58.405Z,7.15
2019-03-05T04:27:36.023Z,7.55
2019-03-05T04:28:13.778Z,7.35
2019-03-05T04:28:51.247Z,8.10
2019-03-05T04:29:28.960Z,7.58
2019-03-05T04:30:08.819Z,7.33
2019-03-05T04:30:46.585Z,8.03
2019-03-05T04:31:24.665Z,7.05
2019-03-05T04:32:02.336Z,8.80
2019-03-05T04:32:39.457Z,8.15
2019-03-05T04:33:17.201Z,7.60
2019-03-05T04:33:54.257Z,8.40
2019-03-05T04:34:31.844Z,6.95
2019-03-05T04:35:11.164Z,7.03
2019-03-05T04:35:48.796Z,7.67
2019-03-05T04:36:26.452Z,7.80
2019-03-05T04:37:04.182Z,7.47
2019-03-05T04:37:42.319Z,7.20
2019-03-05T04:38:20.080Z,8.23
2019-03-05T04:38:57.556Z,6.85
2019-03-05T04:39:34.996Z,7.72
2019-03-05T04:40:13.570Z,7.85
2019-03-05T04:40:51.271Z,7.08
2019-03-05T04:41:29.604Z,7.87
2019-03-05T04:42:07.158Z,7.83
2019-03-05T04:42:44.848Z,7.60
2019-03-05T04:43:22.636Z,7.20
2019-03-05T04:44:00.052Z,6.97
2019-03-05T04:44:44.774Z,6.90
2019-03-05T04:46:03.761Z,9.08
2019-03-05T04:46:47.330Z,6.92
2019-03-05T04:47:24.463Z,8.13
2019-03-05T04:48:02.045Z,7.45
2019-03-05T04:48:40.122Z,7.95
2019-03-05T04:49:26.496Z,6.87
2019-03-05T04:50:13.934Z,8.08
2019-03-05T04:51:25.313Z,7.53
2019-03-05T04:52:05.610Z,7.33
2019-03-05T04:52:43.672Z,7.75
2019-03-05T04:53:21.524Z,7.17
2019-03-05T04:53:59.200Z,7.70
2019-03-05T04:54:36.598Z,7.90
2019-03-05T04:55:14.286Z,7.00
2019-03-05T04:55:51.688Z,7.25
2019-03-05T04:56:30.093Z,7.30
2019-03-05T04:57:08.363Z,7.97
2019-03-05T04:57:45.920Z,7.40
2019-03-05T04:58:24.038Z,8.35
2019-03-05T04:59:02.017Z,7.08
2019-03-05T04:59:39.537Z,7.30
2019-03-05T05:00:17.995Z,8.00
2019-03-05T05:00:55.207Z,7.20
2019-03-05T05:01:32.958Z,7.15
2019-03-05T05:02:10.756Z,6.83
2019-03-05T05:02:48.333Z,7.90
2019-03-05T05:03:26.041Z,6.95
2019-03-05T05:04:04.110Z,7.08
2019-03-05T05:04:41.636Z,7.22
2019-03-05T05:05:19.362Z,7.22
2019-03-05T05:05:57.263Z,7.35
2019-03-05T05:06:34.716Z,7.95
2019-03-05T05:07:12.500Z,8.08
2019-03-05T05:07:49.954Z,7.45
2019-03-05T05:08:27.352Z,8.15
2019-03-05T05:09:05.091Z,7.00
2019-03-05T05:09:42.772Z,7.28
2019-03-05T05:10:20.754Z,8.35
2019-03-05T05:10:58.600Z,7.75
2019-03-05T05:11:35.780Z,7.55
2019-03-05T05:12:13.536Z,8.13
2019-03-05T05:12:51.553Z,8.43
2019-03-05T05:13:29.601Z,7.55
2019-03-05T05:14:07.322Z,7.90
2019-03-05T05:14:44.955Z,7.60
2019-03-05T05:15:32.843Z,8.13
2019-03-05T05:16:10.644Z,8.03
2019-03-05T05:16:48.320Z,6.97
2019-03-05T05:17:25.691Z,8.08
2019-03-05T05:18:03.437Z,7.30
2019-03-05T05:18:40.737Z,6.95
2019-03-05T05:19:18.779Z,8.08
2019-03-05T05:19:56.179Z,7.20
2019-03-05T05:20:33.393Z,7.85
2019-03-05T05:21:10.852Z,7.33
2019-03-05T05:21:48.578Z,7.45
2019-03-05T05:22:26.140Z,7.60
2019-03-05T05:23:03.943Z,6.90
2019-03-05T05:23:41.699Z,7.85
2019-03-05T05:24:19.710Z,7.15
2019-03-05T05:24:57.517Z,7.45
2019-03-05T05:25:35.425Z,7.80
2019-03-05T05:26:13.164Z,7.85
2019-03-05T05:26:51.032Z,7.70
2019-03-05T05:27:29.053Z,7.65
2019-03-05T05:28:07.116Z,6.67
2019-03-05T05:28:44.894Z,7.80
2019-03-05T05:29:22.069Z,7.65
2019-03-05T05:29:59.448Z,7.05
2019-03-05T05:30:38.691Z,7.15
2019-03-05T05:31:16.782Z,7.15
2019-03-05T05:31:53.841Z,7.28
2019-03-05T05:32:30.934Z,7.65
2019-03-05T05:33:08.880Z,6.85
2019-03-05T05:33:46.313Z,6.90
2019-03-05T05:34:23.432Z,7.08
2019-03-05T05:35:01.045Z,7.40
2019-03-05T05:35:38.717Z,6.53
2019-03-05T05:36:15.785Z,7.00
2019-03-05T05:36:53.165Z,7.60
2019-03-05T05:37:30.783Z,6.65
2019-03-05T05:38:08.733Z,6.30
2019-03-05T05:38:46.537Z,6.70
2019-03-05T05:39:59.877Z,6.65
2019-03-05T05:40:41.517Z,6.20
2019-03-05T05:41:19.217Z,6.20
2019-03-05T05:41:57.193Z,6.30
2019-03-05T05:42:34.774Z,6.37
2019-03-05T05:43:17.369Z,6.53
2019-03-05T05:43:54.934Z,6.55
2019-03-05T05:44:32.420Z,7.05
2019-03-05T05:45:13.789Z,6.30
2019-03-05T05:45:51.893Z,6.53
2019-03-05T05:46:33.135Z,6.62
2019-03-05T05:47:11.098Z,6.92
2019-03-05T05:47:48.791Z,6.05
2019-03-05T05:48:26.638Z,6.55
2019-03-05T05:49:04.473Z,6.10
2019-03-05T05:49:43.189Z,6.03
2019-03-05T05:50:20.679Z,6.05
2019-03-05T05:50:58.463Z,5.85
2019-03-05T05:51:36.248Z,5.65
2019-03-05T05:52:14.269Z,6.40
2019-03-05T05:52:52.416Z,6.45
2019-03-05T05:53:30.582Z,6.97
2019-03-05T05:54:08.195Z,6.40
2019-03-05T05:54:45.918Z,6.40
2019-03-05T05:55:23.756Z,6.65
2019-03-05T05:56:01.315Z,5.65
2019-03-05T05:56:39.301Z,6.47
2019-03-05T05:57:16.660Z,7.33
2019-03-05T05:57:54.059Z,7.17
2019-03-05T05:58:31.790Z,6.92
2019-03-05T05:59:09.397Z,6.60
2019-03-05T05:59:52.997Z,6.37
2019-03-05T06:00:31.315Z,7.10
2019-03-05T06:01:11.737Z,6.75
2019-03-05T06:01:49.341Z,6.20
2019-03-05T06:02:27.025Z,6.67
2019-03-05T06:03:04.606Z,6.95
2019-03-05T06:03:42.719Z,6.12
2019-03-05T06:04:20.166Z,6.62
2019-03-05T06:04:57.492Z,5.67
2019-03-05T06:05:35.065Z,6.65
2019-03-05T06:06:12.541Z,6.85
2019-03-05T06:06:50.597Z,7.12
2019-03-05T06:07:27.525Z,6.53
2019-03-05T06:08:05.382Z,6.67
2019-03-05T06:08:42.775Z,6.58
2019-03-05T06:09:20.715Z,6.00
2019-03-05T06:09:58.413Z,6.12
2019-03-05T06:10:35.915Z,6.95
2019-03-05T06:11:19.465Z,6.22
2019-03-05T06:11:57.281Z,5.65
2019-03-05T06:12:34.759Z,7.40
2019-03-05T06:13:12.468Z,6.08
2019-03-05T06:13:49.917Z,6.50
2019-03-05T06:14:27.521Z,7.00
2019-03-05T06:15:06.129Z,6.83
2019-03-05T06:15:43.937Z,6.65
2019-03-05T06:16:21.853Z,6.50
2019-03-05T06:16:59.587Z,6.65
2019-03-05T06:17:40.660Z,6.45
2019-03-05T06:18:17.817Z,6.72
2019-03-05T06:18:55.105Z,6.50
2019-03-05T06:19:33.096Z,6.28
2019-03-05T06:20:17.305Z,6.12
2019-03-05T06:20:55.456Z,6.12
2019-03-05T06:21:34.347Z,6.53
2019-03-05T06:22:12.097Z,6.03
2019-03-05T06:22:50.000Z,6.70
2019-03-05T06:23:27.464Z,6.05
2019-03-05T06:24:04.948Z,6.83
2019-03-05T06:24:42.374Z,6.17
2019-03-05T06:25:20.502Z,6.90
2019-03-05T06:25:57.987Z,7.05
2019-03-05T06:26:35.835Z,6.20
2019-03-05T06:27:13.359Z,5.97
2019-03-05T06:27:52.295Z,5.80
2019-03-05T06:28:29.986Z,6.85
2019-03-05T06:29:07.657Z,6.15
2019-03-05T06:29:45.237Z,5.30
2019-03-05T06:30:22.307Z,6.62
2019-03-05T06:30:59.981Z,5.70
2019-03-05T06:31:37.764Z,5.83
2019-03-05T06:32:17.302Z,5.50
2019-03-05T06:32:53.551Z,5.60
2019-03-05T06:33:31.135Z,6.22
2019-03-05T06:34:09.001Z,5.95
2019-03-05T06:34:46.801Z,6.10
2019-03-05T06:35:24.458Z,5.12
2019-03-05T06:36:01.859Z,6.37
2019-03-05T06:36:58.896Z,5.87
2019-03-05T06:37:36.667Z,5.28
2019-03-05T06:38:14.250Z,5.85
2019-03-05T06:38:52.041Z,6.08
2019-03-05T06:39:29.267Z,5.20
2019-03-05T06:40:09.547Z,6.15
2019-03-05T06:40:55.379Z,5.25
2019-03-05T06:41:33.116Z,6.00
2019-03-05T06:42:10.585Z,5.90
2019-03-05T06:42:48.417Z,6.00
2019-03-05T06:43:25.749Z,6.33
2019-03-05T06:44:22.183Z,5.62
2019-03-05T06:44:59.575Z,6.20
2019-03-05T06:45:37.191Z,5.72
2019-03-05T06:46:14.369Z,5.42
2019-03-05T06:46:52.122Z,5.03
2019-03-05T06:47:29.889Z,5.65
2019-03-05T06:48:07.773Z,6.03
2019-03-05T06:48:45.545Z,5.70
2019-03-05T06:49:23.683Z,5.10
2019-03-05T06:50:01.229Z,5.30
2019-03-05T06:50:38.655Z,5.85
2019-03-05T06:51:16.314Z,5.60
2019-03-05T06:51:54.212Z,5.10
2019-03-05T06:52:32.079Z,6.08
2019-03-05T06:53:10.143Z,5.60
2019-03-05T06:53:48.175Z,5.60
2019-03-05T06:54:26.219Z,5.37
2019-03-05T06:55:03.834Z,4.30
2019-03-05T06:55:40.929Z,5.53
2019-03-05T06:56:18.015Z,5.47
2019-03-05T06:56:55.341Z,6.25
2019-03-05T06:57:32.771Z,5.80
2019-03-05T06:58:11.846Z,5.75
2019-03-05T06:58:49.211Z,5.60
2019-03-05T06:59:26.925Z,6.28
2019-03-05T07:00:05.848Z,5.62
2019-03-05T07:00:43.573Z,5.83
2019-03-05T07:01:21.133Z,5.75
2019-03-05T07:01:58.703Z,5.37
2019-03-05T07:02:36.439Z,5.92
2019-03-05T07:03:14.271Z,5.70
2019-03-05T07:03:52.010Z,5.95
2019-03-05T07:04:29.337Z,6.30
2019-03-05T07:05:08.477Z,6.70
2019-03-05T07:06:21.825Z,5.55
2019-03-05T07:07:00.427Z,6.47
2019-03-05T07:07:38.010Z,6.00
2019-03-05T07:08:16.152Z,6.55
2019-03-05T07:09:04.259Z,6.22
2019-03-05T07:09:59.645Z,6.42
2019-03-05T07:11:24.569Z,6.50
2019-03-05T07:12:23.613Z,5.85
2019-03-05T07:13:13.527Z,6.50
2019-03-05T07:14:13.277Z,6.42
2019-03-05T07:15:18.305Z,6.15
2019-03-05T07:16:02.947Z,5.95
2019-03-05T07:16:47.556Z,6.50
2019-03-05T07:17:35.361Z,5.65
2019-03-05T07:18:26.038Z,5.92
2019-03-05T07:19:10.958Z,5.17
2019-03-05T07:20:10.869Z,6.05
2019-03-05T07:21:15.827Z,5.90
2019-03-05T07:22:18.815Z,5.95
2019-03-05T07:23:08.937Z,5.53
2019-03-05T07:24:39.561Z,5.65
2019-03-05T07:25:17.306Z,5.45
2019-03-05T07:25:54.726Z,5.62
2019-03-05T07:26:32.201Z,5.75
2019-03-05T07:27:10.814Z,5.62
2019-03-05T07:27:52.793Z,4.60
2019-03-05T07:28:30.785Z,6.12
2019-03-05T07:29:07.699Z,5.08
2019-03-05T07:29:45.511Z,5.47
2019-03-05T07:30:24.729Z,5.80
2019-03-05T07:31:02.881Z,5.30
2019-03-05T07:31:40.638Z,5.53
2019-03-05T07:32:18.747Z,4.65
2019-03-05T07:32:58.056Z,5.15
2019-03-05T07:33:36.019Z,6.10
2019-03-05T07:34:22.471Z,5.15
2019-03-05T07:35:01.844Z,6.17
2019-03-05T07:35:39.892Z,5.55
2019-03-05T07:36:17.552Z,5.87
2019-03-05T07:36:55.104Z,5.97
2019-03-05T07:37:33.127Z,5.60
2019-03-05T07:38:10.953Z,5.60
2019-03-05T07:38:48.887Z,5.00
2019-03-05T07:39:27.109Z,5.83
2019-03-05T07:40:04.877Z,4.92
2019-03-05T07:40:42.369Z,5.53
2019-03-05T07:41:20.111Z,5.40
2019-03-05T07:41:57.949Z,5.42
2019-03-05T07:42:35.794Z,4.85
2019-03-05T07:43:13.293Z,5.53
2019-03-05T07:43:58.415Z,5.30
2019-03-05T07:44:36.148Z,5.78
2019-03-05T07:45:14.528Z,4.87
2019-03-05T07:45:51.993Z,5.78
2019-03-05T07:46:29.355Z,6.20
2019-03-05T07:47:08.323Z,6.00
2019-03-05T07:47:45.851Z,5.00
2019-03-05T07:48:23.553Z,4.90
2019-03-05T07:49:01.595Z,6.10
2019-03-05T07:49:43.913Z,7.12
2019-03-05T07:50:17.937Z,6.85
2019-03-05T07:50:55.605Z,5.90
2019-03-05T07:51:33.625Z,5.67
2019-03-05T07:52:11.173Z,8.98
2019-03-05T07:52:48.655Z,7.33
2019-03-05T07:53:26.464Z,6.35
2019-03-05T07:54:04.280Z,6.25
2019-03-05T07:54:42.258Z,6.33
2019-03-05T07:55:20.204Z,6.37
2019-03-05T07:55:59.339Z,7.40
2019-03-05T07:56:37.189Z,5.45
2019-03-05T07:57:14.935Z,6.00
2019-03-05T07:57:52.640Z,6.90
2019-03-05T07:58:29.869Z,5.97
2019-03-05T07:59:07.759Z,5.53
2019-03-05T07:59:46.339Z,5.20
2019-03-05T08:00:25.176Z,5.42
2019-03-05T08:01:03.082Z,5.22
2019-03-05T08:01:40.998Z,5.65
2019-03-05T08:02:19.104Z,5.15
2019-03-05T08:02:57.309Z,4.75
2019-03-05T08:03:34.651Z,4.85
2019-03-05T08:04:12.191Z,5.25
2019-03-05T08:04:50.205Z,4.85
2019-03-05T08:05:27.993Z,5.30
2019-03-05T08:06:06.010Z,5.62
2019-03-05T08:06:43.733Z,5.67
2019-03-05T08:07:21.420Z,4.45
2019-03-05T08:08:46.310Z,5.08
2019-03-05T08:09:34.690Z,5.28
2019-03-05T08:10:19.445Z,4.40
2019-03-05T08:11:02.022Z,4.47
2019-03-05T08:11:39.710Z,5.17
2019-03-05T08:12:43.776Z,5.08
2019-03-05T08:13:30.266Z,6.05
2019-03-05T08:14:27.565Z,5.60
2019-03-05T08:15:43.180Z,5.03
2019-03-05T08:16:26.611Z,4.78
2019-03-05T08:17:04.295Z,4.67
2019-03-05T08:17:46.915Z,4.72
2019-03-05T08:18:24.492Z,5.33
2019-03-05T08:19:02.714Z,5.25
2019-03-05T08:19:40.137Z,4.45
2019-03-05T08:20:17.973Z,5.33
2019-03-05T08:20:55.763Z,4.67
2019-03-05T08:21:33.627Z,4.80
2019-03-05T08:22:10.816Z,5.12
2019-03-05T08:22:48.658Z,5.25
2019-03-05T08:23:45.281Z,5.25
2019-03-05T08:24:22.670Z,5.28
2019-03-05T08:25:00.544Z,5.40
2019-03-05T08:25:38.546Z,5.47
2019-03-05T08:26:18.555Z,4.55
2019-03-05T08:26:56.604Z,5.53
2019-03-05T08:27:33.856Z,5.08
2019-03-05T08:28:11.737Z,5.62
2019-03-05T08:28:49.545Z,5.08
2019-03-05T08:29:27.093Z,5.15
2019-03-05T08:30:14.306Z,5.20
2019-03-05T08:30:45.326Z,5.30
2019-03-05T08:31:22.415Z,4.95
2019-03-05T08:31:59.500Z,5.00
2019-03-05T08:32:37.281Z,5.30
2019-03-05T08:33:15.346Z,4.40
2019-03-05T08:33:53.471Z,4.60
2019-03-05T08:34:31.155Z,5.75
2019-03-05T08:35:09.780Z,4.60
2019-03-05T08:35:47.887Z,4.80
2019-03-05T08:36:25.564Z,4.25
2019-03-05T08:37:03.287Z,4.87
2019-03-05T08:37:41.107Z,4.08
2019-03-05T08:38:18.654Z,4.20
2019-03-05T08:38:56.468Z,5.35
2019-03-05T08:39:33.925Z,4.37
2019-03-05T08:40:12.165Z,4.20
2019-03-05T08:40:49.925Z,4.00
2019-03-05T08:41:28.131Z,4.62
2019-03-05T08:42:06.047Z,4.50
2019-03-05T08:42:43.467Z,4.50
2019-03-05T08:43:21.256Z,5.00
2019-03-05T08:43:59.342Z,4.08
2019-03-05T08:44:37.054Z,4.72
2019-03-05T08:45:15.133Z,4.17
2019-03-05T08:45:52.948Z,4.20
2019-03-05T08:46:30.280Z,4.65
2019-03-05T08:47:08.547Z,4.30
2019-03-05T08:47:48.215Z,4.33
2019-03-05T08:48:26.418Z,3.80
2019-03-05T08:49:06.780Z,4.05
2019-03-05T08:49:44.739Z,3.50
2019-03-05T08:50:22.732Z,3.35
2019-03-05T08:51:00.699Z,2.95
2019-03-05T08:51:41.587Z,3.35
2019-03-05T08:52:19.249Z,3.40
2019-03-05T08:52:57.339Z,3.52
2019-03-05T08:53:35.455Z,3.60
2019-03-05T08:54:13.362Z,2.85
2019-03-05T08:54:51.234Z,3.55
2019-03-05T08:55:29.196Z,3.40
2019-03-05T08:56:07.832Z,3.12
2019-03-05T08:56:45.590Z,2.90
2019-03-05T08:57:22.669Z,3.58
2019-03-05T08:58:00.406Z,3.35
2019-03-05T08:58:40.732Z,2.90
2019-03-05T08:59:18.185Z,3.00
2019-03-05T08:59:55.597Z,3.08
2019-03-05T09:00:36.736Z,3.30
2019-03-05T09:01:14.332Z,3.67
2019-03-05T09:01:52.403Z,2.85
2019-03-05T09:02:30.539Z,3.17
2019-03-05T09:03:08.376Z,3.50
2019-03-05T09:03:45.763Z,3.15
2019-03-05T09:04:23.553Z,4.08
2019-03-05T09:05:01.441Z,3.08
2019-03-05T09:05:39.125Z,3.67
2019-03-05T09:06:17.256Z,3.20
2019-03-05T09:06:56.537Z,3.08
2019-03-05T09:07:34.018Z,2.90
2019-03-05T09:08:12.260Z,2.67
2019-03-05T09:08:50.059Z,2.95
2019-03-05T09:09:27.888Z,2.62
2019-03-05T09:10:07.912Z,3.00
2019-03-05T09:10:45.318Z,2.62
2019-03-05T09:11:23.327Z,2.58
2019-03-05T09:12:00.604Z,3.15
2019-03-05T09:12:41.992Z,2.80
2019-03-05T09:13:19.351Z,2.65
2019-03-05T09:13:56.916Z,2.60
2019-03-05T09:14:34.710Z,2.75
2019-03-05T09:15:15.535Z,2.75